createdAt,value
2023-02-02T00:04:23.364Z,24.10
2023-02-02T00:09:23.233Z,21.20
2023-02-02T00:14:24.222Z,40.30
2023-02-02T00:19:23.176Z,58.70
2023-02-02T00:24:23.198Z,28.60
2023-02-02T00:29:23.195Z,28.60
2023-02-02T00:34:23.006Z,28.80
2023-02-02T00:39:22.928Z,24.70
2023-02-02T00:44:22.952Z,22.40
2023-02-02T00:49:22.877Z,22.40
2023-02-02T00:54:22.795Z,20.50
2023-02-02T00:59:22.749Z,14.40
2023-02-02T01:04:22.698Z,10.60
2023-02-02T01:09:22.651Z,13.60
2023-02-02T01:14:22.571Z,16.60
2023-02-02T01:19:22.596Z,14.20
2023-02-02T01:24:22.450Z,24.70
2023-02-02T01:29:22.461Z,24.40
2023-02-02T01:34:22.351Z,23.80
2023-02-02T01:39:22.318Z,23.90
2023-02-02T01:44:22.259Z,30.20
2023-02-02T01:49:22.155Z,21.80
2023-02-02T01:54:22.131Z,22.90
2023-02-02T01:59:22.060Z,30.00
2023-02-02T02:04:22.015Z,32.30
2023-02-02T02:09:21.976Z,35.60
2023-02-02T02:14:21.863Z,34.30
2023-02-02T02:19:21.869Z,34.00
2023-02-02T02:24:21.752Z,39.00
2023-02-02T02:29:21.726Z,40.70
2023-02-02T02:34:21.690Z,35.40
2023-02-02T02:39:21.629Z,35.10
2023-02-02T02:44:21.532Z,32.70
2023-02-02T02:49:21.515Z,39.10
2023-02-02T02:54:21.505Z,34.70
2023-02-02T02:59:21.421Z,31.50
2023-02-02T03:04:21.362Z,36.90
2023-02-02T03:09:21.330Z,39.20
2023-02-02T03:14:22.248Z,34.40
2023-02-02T03:19:22.236Z,35.90
2023-02-02T03:24:21.139Z,31.60
2023-02-02T03:29:21.102Z,33.80
2023-02-02T03:34:21.006Z,38.30
2023-02-02T03:39:20.929Z,44.20
2023-02-02T03:44:20.957Z,51.70
2023-02-02T03:49:20.801Z,57.90
2023-02-02T03:54:20.827Z,56.40
2023-02-02T03:59:20.800Z,49.90
2023-02-02T04:04:20.669Z,48.50
2023-02-02T04:09:21.052Z,37.90
2023-02-02T04:14:20.573Z,42.30
2023-02-02T04:19:20.472Z,44.60
2023-02-02T04:24:21.397Z,42.30
2023-02-02T04:29:20.480Z,46.20
2023-02-02T04:34:20.433Z,46.40
2023-02-02T04:39:20.309Z,45.50
2023-02-02T04:44:20.280Z,43.60
2023-02-02T04:49:20.212Z,37.70
2023-02-02T04:54:20.200Z,43.90
2023-02-02T04:59:20.095Z,44.10
2023-02-02T05:04:20.117Z,50.60
2023-02-02T05:09:19.986Z,42.20
2023-02-02T05:14:19.989Z,38.60
2023-02-02T05:19:19.855Z,46.50
2023-02-02T05:24:28.623Z,43.50
2023-02-02T05:29:19.711Z,39.10
2023-02-02T05:34:19.639Z,34.80
2023-02-02T05:39:19.594Z,42.20
2023-02-02T05:44:19.556Z,37.50
2023-02-02T05:49:19.494Z,37.00
2023-02-02T05:54:19.466Z,32.90
2023-02-02T05:59:19.365Z,33.60
2023-02-02T06:04:19.332Z,36.80
2023-02-02T06:09:19.259Z,35.50
2023-02-02T06:14:19.210Z,34.10
2023-02-02T06:19:19.161Z,35.50
2023-02-02T06:24:19.117Z,35.90
2023-02-02T06:29:19.045Z,31.40
2023-02-02T06:34:19.007Z,46.40
2023-02-02T06:39:18.920Z,32.00
2023-02-02T06:44:18.836Z,43.30
2023-02-02T06:49:18.797Z,40.10
2023-02-02T06:54:18.754Z,37.40
2023-02-02T06:59:18.692Z,36.60
2023-02-02T07:04:18.655Z,38.10
2023-02-02T07:09:18.582Z,29.90
2023-02-02T07:14:18.546Z,47.20
2023-02-02T07:19:18.517Z,40.00
2023-02-02T07:24:18.441Z,33.40
2023-02-02T07:29:18.369Z,34.00
2023-02-02T07:34:18.360Z,35.50
2023-02-02T07:39:18.259Z,48.50
2023-02-02T07:44:18.201Z,38.30
2023-02-02T07:49:18.119Z,39.00
2023-02-02T07:54:18.100Z,41.30
2023-02-02T07:59:18.038Z,42.60
2023-02-02T08:04:17.975Z,37.10
2023-02-02T08:09:17.977Z,36.10
2023-02-02T08:14:17.892Z,47.80
2023-02-02T08:19:17.825Z,38.20
2023-02-02T08:24:17.763Z,39.80
2023-02-02T08:29:17.751Z,31.30
2023-02-02T08:34:17.677Z,38.50
2023-02-02T08:39:17.590Z,44.10
2023-02-02T08:44:17.557Z,46.00
2023-02-02T08:49:17.483Z,40.00
2023-02-02T08:54:17.448Z,40.90
2023-02-02T08:59:17.369Z,35.80
2023-02-02T09:04:17.360Z,28.50
2023-02-02T09:09:17.269Z,37.70
2023-02-02T09:14:17.193Z,30.60
2023-02-02T09:19:17.158Z,36.80
2023-02-02T09:24:17.117Z,31.30
2023-02-02T09:29:17.062Z,34.10
2023-02-02T09:34:16.978Z,36.50
2023-02-02T09:39:16.956Z,28.60
2023-02-02T09:44:16.918Z,31.80
2023-02-02T09:49:16.855Z,38.70
2023-02-02T09:54:16.757Z,27.70
2023-02-02T09:59:20.345Z,21.50
2023-02-02T10:04:16.675Z,30.40
2023-02-02T10:09:16.631Z,20.20
2023-02-02T10:14:16.569Z,36.70
2023-02-02T10:19:16.487Z,27.30
2023-02-02T10:24:16.467Z,34.40
2023-02-02T10:29:16.420Z,36.40
2023-02-02T10:34:16.386Z,35.20
2023-02-02T10:39:16.264Z,34.50
2023-02-02T10:44:16.231Z,35.00
2023-02-02T10:49:16.189Z,32.80
2023-02-02T10:54:16.138Z,31.10
2023-02-02T10:59:16.073Z,28.50
2023-02-02T11:04:16.025Z,38.40
2023-02-02T11:09:15.950Z,36.80
2023-02-02T11:14:15.897Z,31.90
2023-02-02T11:19:15.881Z,31.10
2023-02-02T11:30:54.380Z,27.60
2023-02-02T11:35:54.316Z,31.30
2023-02-02T11:40:55.234Z,30.70
2023-02-02T11:45:54.180Z,26.50
2023-02-02T11:50:54.190Z,29.80
2023-02-02T11:55:54.045Z,20.10
2023-02-02T12:00:53.965Z,24.80
2023-02-02T12:05:53.925Z,31.50
2023-02-02T12:10:53.870Z,25.60
2023-02-02T12:15:53.852Z,29.10
2023-02-02T12:20:54.007Z,33.10
2023-02-02T12:25:53.829Z,27.40
2023-02-02T12:30:53.806Z,28.10
2023-02-02T12:35:54.221Z,34.50
2023-02-02T12:42:33.734Z,27.60
2023-02-02T12:47:33.214Z,25.80
2023-02-02T12:52:33.157Z,26.70
2023-02-02T12:57:33.192Z,29.70
2023-02-02T13:02:33.106Z,28.60
2023-02-02T13:07:33.057Z,37.90
2023-02-02T13:12:32.982Z,33.70
2023-02-02T13:17:33.025Z,33.70
2023-02-02T13:22:32.924Z,38.20
2023-02-02T13:27:32.811Z,36.10
2023-02-02T13:32:32.796Z,34.50
2023-02-02T13:37:32.712Z,34.10
2023-02-02T13:42:32.678Z,32.50
2023-02-02T13:47:32.639Z,33.90
2023-02-02T13:54:08.311Z,25.80
2023-02-02T13:59:08.219Z,31.70
2023-02-02T14:04:09.195Z,20.10
2023-02-02T14:15:58.412Z,32.50
2023-02-02T14:20:59.996Z,27.30
2023-02-02T14:26:19.654Z,25.70
2023-02-02T14:30:57.883Z,19.50
2023-02-02T14:35:58.058Z,29.70
2023-02-02T14:40:56.747Z,22.70
2023-02-02T14:45:56.692Z,30.00
2023-02-02T14:50:56.659Z,31.60
2023-02-02T14:55:56.553Z,36.50
2023-02-02T15:00:56.502Z,33.20
2023-02-02T15:05:56.463Z,40.60
2023-02-02T15:10:56.479Z,33.90
2023-02-02T15:50:19.663Z,34.70
2023-02-02T15:55:19.632Z,35.70
2023-02-02T16:00:19.541Z,35.10
2023-02-02T16:05:19.440Z,36.90
2023-02-02T16:10:19.456Z,31.60
2023-02-02T16:15:19.358Z,36.70
2023-02-02T16:20:19.310Z,32.30
2023-02-02T16:25:19.287Z,32.60
2023-02-02T16:30:19.181Z,29.90
2023-02-02T16:35:19.163Z,28.40
2023-02-02T16:40:19.868Z,28.40
2023-02-02T16:45:19.034Z,29.50
2023-02-02T16:50:19.102Z,33.50
2023-02-02T16:55:18.946Z,32.00
2023-02-02T17:00:19.000Z,33.80
2023-02-02T17:05:18.819Z,34.00
2023-02-02T17:10:18.847Z,36.10
2023-02-02T17:15:18.735Z,34.50
2023-02-02T17:20:18.715Z,25.40
2023-02-02T17:25:27.868Z,31.00
2023-02-02T17:30:18.516Z,28.40
2023-02-02T17:35:18.580Z,31.10
2023-02-02T17:40:18.443Z,25.90
2023-02-02T17:45:18.358Z,28.30
2023-02-02T17:50:18.402Z,26.20
2023-02-02T17:55:18.375Z,26.20
2023-02-02T18:00:19.394Z,28.40
2023-02-02T18:05:18.175Z,22.50
2023-02-02T18:10:18.122Z,29.80
2023-02-02T18:15:18.323Z,24.10
2023-02-02T18:20:18.105Z,23.30
2023-02-02T18:25:17.996Z,21.90
2023-02-02T18:30:17.935Z,19.90
2023-02-02T18:35:17.890Z,26.10
2023-02-02T18:40:17.886Z,21.50
2023-02-02T18:45:17.805Z,18.30
2023-02-02T18:50:17.823Z,21.50
2023-02-02T18:55:17.920Z,22.30
2023-02-02T19:00:17.645Z,25.00
2023-02-02T19:05:17.682Z,22.60
2023-02-02T19:10:17.506Z,26.10
2023-02-02T19:15:17.452Z,30.10
2023-02-02T19:20:17.440Z,36.00
2023-02-02T19:25:17.481Z,44.90
2023-02-02T19:30:17.278Z,49.60
2023-02-02T19:35:17.210Z,42.40
2023-02-02T19:40:17.182Z,51.20
2023-02-02T19:45:23.769Z,48.00
2023-02-02T19:50:23.771Z,48.50
2023-02-02T19:55:17.041Z,51.20
2023-02-02T20:00:21.336Z,63.20
2023-02-02T20:05:16.936Z,51.50
2023-02-02T20:10:17.874Z,53.40
2023-02-02T20:15:16.870Z,55.20
2023-02-02T20:20:17.029Z,51.60
2023-02-02T20:25:19.318Z,52.50
2023-02-02T20:30:17.218Z,55.50
2023-02-02T20:35:16.708Z,53.00
2023-02-02T20:40:19.734Z,52.00
2023-02-02T20:45:16.432Z,54.20
2023-02-02T20:50:16.412Z,43.30
2023-02-02T20:55:17.357Z,40.00
2023-02-02T21:00:24.532Z,43.00
2023-02-02T21:05:16.420Z,39.20
2023-02-02T21:10:16.223Z,45.60
2023-02-02T21:15:16.187Z,32.80
2023-02-02T21:20:16.162Z,40.90
2023-02-02T21:25:16.058Z,40.40
2023-02-02T21:30:15.954Z,35.80
2023-02-02T21:35:15.994Z,41.10
2023-02-02T21:40:15.854Z,34.60
2023-02-02T21:45:15.824Z,31.60
2023-02-02T21:50:15.897Z,37.80
2023-02-02T21:55:15.695Z,33.90
2023-02-02T22:00:15.641Z,31.90
2023-02-02T22:05:15.574Z,32.60
2023-02-02T22:10:15.516Z,33.20
2023-02-02T22:15:15.467Z,36.60
2023-02-02T22:20:15.407Z,35.40
2023-02-02T22:25:15.351Z,30.40
2023-02-02T22:30:15.330Z,32.00
2023-02-02T22:35:15.260Z,31.00
2023-02-02T22:40:15.176Z,36.50
2023-02-02T22:45:15.166Z,28.70
2023-02-02T22:50:15.093Z,28.90
2023-02-02T22:55:15.035Z,30.60
2023-02-02T23:00:14.983Z,30.20
2023-02-02T23:05:14.911Z,28.50
2023-02-02T23:10:14.862Z,26.00
2023-02-02T23:15:14.867Z,25.40
2023-02-02T23:20:14.744Z,29.40
2023-02-02T23:25:24.542Z,30.40
2023-02-02T23:30:14.631Z,25.90
2023-02-02T23:35:14.662Z,35.50
2023-02-02T23:40:14.504Z,26.10
2023-02-02T23:45:16.203Z,28.50
2023-02-02T23:50:14.472Z,24.40
2023-02-02T23:55:14.367Z,22.80
